sensor_id;sensor_type;location;lat;lon;timestamp;P1;durP1;ratioP1;P2;durP2;ratioP2
12059;SDS011;6091;51.432;6.880;2023-06-10T00:02:21;3.70;;;3.40;;
12059;SDS011;6091;51.432;6.880;2023-06-10T00:04:48;3.88;;;3.58;;
12059;SDS011;6091;51.432;6.880;2023-06-10T00:07:16;3.65;;;3.35;;
12059;SDS011;6091;51.432;6.880;2023-06-10T00:09:43;3.67;;;3.38;;
12059;SDS011;6091;51.432;6.880;2023-06-10T00:12:10;3.58;;;3.38;;
12059;SDS011;6091;51.432;6.880;2023-06-10T00:14:38;3.50;;;3.30;;
12059;SDS011;6091;51.432;6.880;2023-06-10T00:17:09;3.40;;;3.10;;
12059;SDS011;6091;51.432;6.880;2023-06-10T00:19:36;4.03;;;3.75;;
12059;SDS011;6091;51.432;6.880;2023-06-10T00:22:08;3.50;;;3.20;;
12059;SDS011;6091;51.432;6.880;2023-06-10T00:24:37;3.67;;;3.38;;
12059;SDS011;6091;51.432;6.880;2023-06-10T00:27:05;3.83;;;3.53;;
12059;SDS011;6091;51.432;6.880;2023-06-10T00:29:33;3.72;;;3.35;;
12059;SDS011;6091;51.432;6.880;2023-06-10T00:32:01;3.80;;;3.50;;
12059;SDS011;6091;51.432;6.880;2023-06-10T00:34:28;3.88;;;3.58;;
12059;SDS011;6091;51.432;6.880;2023-06-10T00:36:55;3.50;;;3.30;;
12059;SDS011;6091;51.432;6.880;2023-06-10T00:39:22;4.00;;;3.70;;
12059;SDS011;6091;51.432;6.880;2023-06-10T00:41:49;4.10;;;3.80;;
12059;SDS011;6091;51.432;6.880;2023-06-10T00:44:17;3.63;;;3.33;;
12059;SDS011;6091;51.432;6.880;2023-06-10T00:46:44;3.55;;;3.35;;
12059;SDS011;6091;51.432;6.880;2023-06-10T00:49:11;3.90;;;3.60;;
12059;SDS011;6091;51.432;6.880;2023-06-10T00:51:39;3.88;;;3.58;;
12059;SDS011;6091;51.432;6.880;2023-06-10T00:54:06;3.80;;;3.50;;
12059;SDS011;6091;51.432;6.880;2023-06-10T00:56:34;4.00;;;3.70;;
12059;SDS011;6091;51.432;6.880;2023-06-10T00:59:02;3.85;;;3.55;;
12059;SDS011;6091;51.432;6.880;2023-06-10T01:01:32;4.07;;;3.78;;
12059;SDS011;6091;51.432;6.880;2023-06-10T01:04:00;3.88;;;3.58;;
12059;SDS011;6091;51.432;6.880;2023-06-10T01:09:30;3.83;;;3.53;;
12059;SDS011;6091;51.432;6.880;2023-06-10T01:15:07;3.83;;;3.53;;
12059;SDS011;6091;51.432;6.880;2023-06-10T01:17:52;3.83;;;3.53;;
12059;SDS011;6091;51.432;6.880;2023-06-10T01:20:36;3.67;;;3.38;;
12059;SDS011;6091;51.432;6.880;2023-06-10T01:23:07;3.53;;;3.33;;
12059;SDS011;6091;51.432;6.880;2023-06-10T01:25:36;3.92;;;3.55;;
12059;SDS011;6091;51.432;6.880;2023-06-10T01:30:45;3.90;;;3.60;;
12059;SDS011;6091;51.432;6.880;2023-06-10T01:33:35;3.55;;;3.35;;
12059;SDS011;6091;51.432;6.880;2023-06-10T01:36:12;4.10;;;3.80;;
12059;SDS011;6091;51.432;6.880;2023-06-10T01:38:43;4.10;;;3.80;;
12059;SDS011;6091;51.432;6.880;2023-06-10T01:41:12;3.42;;;3.22;;
12059;SDS011;6091;51.432;6.880;2023-06-10T01:43:43;4.13;;;3.83;;
12059;SDS011;6091;51.432;6.880;2023-06-10T01:46:11;4.28;;;3.97;;
12059;SDS011;6091;51.432;6.880;2023-06-10T01:48:38;3.47;;;3.25;;
12059;SDS011;6091;51.432;6.880;2023-06-10T01:51:08;4.65;;;4.00;;
12059;SDS011;6091;51.432;6.880;2023-06-10T01:53:35;4.20;;;3.78;;
12059;SDS011;6091;51.432;6.880;2023-06-10T01:56:02;4.05;;;3.75;;
12059;SDS011;6091;51.432;6.880;2023-06-10T01:58:29;3.58;;;3.28;;
12059;SDS011;6091;51.432;6.880;2023-06-10T02:00:56;4.00;;;3.70;;
12059;SDS011;6091;51.432;6.880;2023-06-10T02:03:24;3.80;;;3.50;;
12059;SDS011;6091;51.432;6.880;2023-06-10T02:05:52;3.85;;;3.55;;
12059;SDS011;6091;51.432;6.880;2023-06-10T02:08:19;4.18;;;3.75;;
12059;SDS011;6091;51.432;6.880;2023-06-10T02:10:47;4.00;;;3.70;;
12059;SDS011;6091;51.432;6.880;2023-06-10T02:13:14;3.90;;;3.60;;
12059;SDS011;6091;51.432;6.880;2023-06-10T02:15:41;3.85;;;3.55;;
12059;SDS011;6091;51.432;6.880;2023-06-10T02:18:07;3.95;;;3.63;;
12059;SDS011;6091;51.432;6.880;2023-06-10T02:20:35;3.80;;;3.60;;
12059;SDS011;6091;51.432;6.880;2023-06-10T02:23:03;4.18;;;3.88;;
12059;SDS011;6091;51.432;6.880;2023-06-10T02:25:30;3.70;;;3.50;;
12059;SDS011;6091;51.432;6.880;2023-06-10T02:27:57;3.60;;;3.40;;
12059;SDS011;6091;51.432;6.880;2023-06-10T02:30:24;4.22;;;3.92;;
12059;SDS011;6091;51.432;6.880;2023-06-10T02:32:51;3.90;;;3.65;;
12059;SDS011;6091;51.432;6.880;2023-06-10T02:35:19;4.10;;;3.85;;
12059;SDS011;6091;51.432;6.880;2023-06-10T02:37:46;3.65;;;3.45;;
12059;SDS011;6091;51.432;6.880;2023-06-10T02:40:13;4.03;;;3.72;;
12059;SDS011;6091;51.432;6.880;2023-06-10T02:42:41;4.40;;;4.10;;
12059;SDS011;6091;51.432;6.880;2023-06-10T02:45:08;4.18;;;3.88;;
12059;SDS011;6091;51.432;6.880;2023-06-10T02:47:37;4.15;;;3.85;;
12059;SDS011;6091;51.432;6.880;2023-06-10T02:50:08;4.38;;;3.97;;
12059;SDS011;6091;51.432;6.880;2023-06-10T02:52:35;4.30;;;3.88;;
12059;SDS011;6091;51.432;6.880;2023-06-10T02:55:02;4.22;;;3.92;;
12059;SDS011;6091;51.432;6.880;2023-06-10T02:57:29;3.80;;;3.50;;
12059;SDS011;6091;51.432;6.880;2023-06-10T02:59:56;4.10;;;3.80;;
12059;SDS011;6091;51.432;6.880;2023-06-10T03:02:24;4.07;;;3.78;;
12059;SDS011;6091;51.432;6.880;2023-06-10T03:04:55;4.15;;;3.85;;
12059;SDS011;6091;51.432;6.880;2023-06-10T03:07:23;4.00;;;3.70;;
12059;SDS011;6091;51.432;6.880;2023-06-10T03:09:50;4.50;;;4.15;;
12059;SDS011;6091;51.432;6.880;2023-06-10T03:12:18;4.25;;;3.95;;
12059;SDS011;6091;51.432;6.880;2023-06-10T03:14:46;4.35;;;4.05;;
12059;SDS011;6091;51.432;6.880;2023-06-10T03:17:14;4.00;;;3.70;;
12059;SDS011;6091;51.432;6.880;2023-06-10T03:19:42;4.18;;;3.88;;
12059;SDS011;6091;51.432;6.880;2023-06-10T03:22:13;4.10;;;3.80;;
12059;SDS011;6091;51.432;6.880;2023-06-10T03:24:44;3.92;;;3.63;;
12059;SDS011;6091;51.432;6.880;2023-06-10T03:27:12;4.47;;;4.07;;
12059;SDS011;6091;51.432;6.880;2023-06-10T03:29:41;4.40;;;4.10;;
12059;SDS011;6091;51.432;6.880;2023-06-10T03:32:09;4.40;;;4.10;;
12059;SDS011;6091;51.432;6.880;2023-06-10T03:34:36;4.53;;;4.22;;
12059;SDS011;6091;51.432;6.880;2023-06-10T03:37:05;4.70;;;3.85;;
12059;SDS011;6091;51.432;6.880;2023-06-10T03:39:34;4.55;;;4.18;;
12059;SDS011;6091;51.432;6.880;2023-06-10T03:42:03;4.90;;;4.47;;
12059;SDS011;6091;51.432;6.880;2023-06-10T03:44:31;4.20;;;3.90;;
12059;SDS011;6091;51.432;6.880;2023-06-10T03:46:58;4.80;;;4.40;;
12059;SDS011;6091;51.432;6.880;2023-06-10T03:49:26;4.68;;;4.35;;
12059;SDS011;6091;51.432;6.880;2023-06-10T03:51:56;4.47;;;4.07;;
12059;SDS011;6091;51.432;6.880;2023-06-10T03:54:24;4.90;;;4.40;;
12059;SDS011;6091;51.432;6.880;2023-06-10T03:56:51;4.47;;;4.18;;
12059;SDS011;6091;51.432;6.880;2023-06-10T03:59:18;4.38;;;4.07;;
12059;SDS011;6091;51.432;6.880;2023-06-10T04:01:45;4.43;;;4.03;;
12059;SDS011;6091;51.432;6.880;2023-06-10T04:04:16;4.68;;;4.28;;
12059;SDS011;6091;51.432;6.880;2023-06-10T04:06:43;4.75;;;4.40;;
12059;SDS011;6091;51.432;6.880;2023-06-10T04:09:11;4.10;;;3.80;;
12059;SDS011;6091;51.432;6.880;2023-06-10T04:11:38;4.22;;;3.92;;
12059;SDS011;6091;51.432;6.880;2023-06-10T04:14:05;4.50;;;4.20;;
12059;SDS011;6091;51.432;6.880;2023-06-10T04:16:32;4.85;;;4.50;;
12059;SDS011;6091;51.432;6.880;2023-06-10T04:19:00;4.50;;;4.20;;
12059;SDS011;6091;51.432;6.880;2023-06-10T04:21:27;5.03;;;4.55;;
12059;SDS011;6091;51.432;6.880;2023-06-10T04:23:54;4.78;;;4.40;;
12059;SDS011;6091;51.432;6.880;2023-06-10T04:26:21;5.22;;;4.72;;
12059;SDS011;6091;51.432;6.880;2023-06-10T04:28:48;4.70;;;4.30;;
12059;SDS011;6091;51.432;6.880;2023-06-10T04:31:15;5.03;;;4.63;;
12059;SDS011;6091;51.432;6.880;2023-06-10T04:33:45;4.57;;;4.18;;
12059;SDS011;6091;51.432;6.880;2023-06-10T04:36:12;4.72;;;4.35;;
12059;SDS011;6091;51.432;6.880;2023-06-10T04:38:40;4.95;;;4.55;;
12059;SDS011;6091;51.432;6.880;2023-06-10T04:41:07;5.40;;;5.00;;
12059;SDS011;6091;51.432;6.880;2023-06-10T04:43:34;4.18;;;3.90;;
12059;SDS011;6091;51.432;6.880;2023-06-10T04:46:01;6.07;;;5.18;;
12059;SDS011;6091;51.432;6.880;2023-06-10T04:48:30;4.75;;;4.40;;
12059;SDS011;6091;51.432;6.880;2023-06-10T04:50:58;4.82;;;4.43;;
12059;SDS011;6091;51.432;6.880;2023-06-10T04:53:25;4.95;;;4.55;;
12059;SDS011;6091;51.432;6.880;2023-06-10T04:55:56;4.00;;;3.78;;
12059;SDS011;6091;51.432;6.880;2023-06-10T04:58:26;4.45;;;4.15;;
12059;SDS011;6091;51.432;6.880;2023-06-10T05:00:53;4.55;;;4.15;;
12059;SDS011;6091;51.432;6.880;2023-06-10T05:03:20;4.97;;;4.57;;
12059;SDS011;6091;51.432;6.880;2023-06-10T05:05:47;4.53;;;4.20;;
12059;SDS011;6091;51.432;6.880;2023-06-10T05:08:14;5.10;;;4.70;;
12059;SDS011;6091;51.432;6.880;2023-06-10T05:10:41;5.05;;;4.63;;
12059;SDS011;6091;51.432;6.880;2023-06-10T05:13:08;5.40;;;5.00;;
12059;SDS011;6091;51.432;6.880;2023-06-10T05:15:35;4.70;;;4.40;;
12059;SDS011;6091;51.432;6.880;2023-06-10T05:18:03;4.63;;;4.22;;
12059;SDS011;6091;51.432;6.880;2023-06-10T05:20:30;4.90;;;4.50;;
12059;SDS011;6091;51.432;6.880;2023-06-10T05:22:57;4.15;;;3.85;;
12059;SDS011;6091;51.432;6.880;2023-06-10T05:25:25;4.68;;;4.28;;
12059;SDS011;6091;51.432;6.880;2023-06-10T05:27:53;5.28;;;4.88;;
12059;SDS011;6091;51.432;6.880;2023-06-10T05:30:20;4.60;;;4.30;;
12059;SDS011;6091;51.432;6.880;2023-06-10T05:32:48;4.97;;;4.57;;
12059;SDS011;6091;51.432;6.880;2023-06-10T05:35:15;4.60;;;4.30;;
12059;SDS011;6091;51.432;6.880;2023-06-10T05:37:42;4.90;;;4.50;;
12059;SDS011;6091;51.432;6.880;2023-06-10T05:40:10;4.82;;;4.53;;
12059;SDS011;6091;51.432;6.880;2023-06-10T05:42:38;4.93;;;4.53;;
12059;SDS011;6091;51.432;6.880;2023-06-10T05:45:05;4.40;;;4.10;;
12059;SDS011;6091;51.432;6.880;2023-06-10T05:47:33;4.53;;;4.18;;
12059;SDS011;6091;51.432;6.880;2023-06-10T05:50:01;5.28;;;4.88;;
12059;SDS011;6091;51.432;6.880;2023-06-10T05:52:28;4.72;;;4.32;;
12059;SDS011;6091;51.432;6.880;2023-06-10T05:54:55;4.60;;;4.30;;
12059;SDS011;6091;51.432;6.880;2023-06-10T05:57:22;5.10;;;4.70;;
12059;SDS011;6091;51.432;6.880;2023-06-10T05:59:49;4.88;;;4.47;;
12059;SDS011;6091;51.432;6.880;2023-06-10T06:02:16;4.82;;;4.43;;
12059;SDS011;6091;51.432;6.880;2023-06-10T06:04:44;5.28;;;4.78;;
12059;SDS011;6091;51.432;6.880;2023-06-10T06:07:11;5.13;;;4.60;;
12059;SDS011;6091;51.432;6.880;2023-06-10T06:09:38;4.90;;;4.50;;
12059;SDS011;6091;51.432;6.880;2023-06-10T06:12:05;4.97;;;4.40;;
12059;SDS011;6091;51.432;6.880;2023-06-10T06:14:36;5.22;;;4.50;;
12059;SDS011;6091;51.432;6.880;2023-06-10T06:17:07;5.28;;;4.80;;
12059;SDS011;6091;51.432;6.880;2023-06-10T06:19:34;4.88;;;4.35;;
12059;SDS011;6091;51.432;6.880;2023-06-10T06:22:01;5.00;;;4.50;;
12059;SDS011;6091;51.432;6.880;2023-06-10T06:24:29;4.75;;;4.20;;
12059;SDS011;6091;51.432;6.880;2023-06-10T06:26:56;4.93;;;4.35;;
12059;SDS011;6091;51.432;6.880;2023-06-10T06:29:23;4.50;;;4.13;;
12059;SDS011;6091;51.432;6.880;2023-06-10T06:31:50;5.28;;;4.35;;
12059;SDS011;6091;51.432;6.880;2023-06-10T06:34:17;5.00;;;4.20;;
12059;SDS011;6091;51.432;6.880;2023-06-10T06:36:44;4.22;;;3.92;;
12059;SDS011;6091;51.432;6.880;2023-06-10T06:39:11;4.32;;;4.00;;
12059;SDS011;6091;51.432;6.880;2023-06-10T06:41:38;4.50;;;4.10;;
12059;SDS011;6091;51.432;6.880;2023-06-10T06:44:05;4.80;;;4.40;;
12059;SDS011;6091;51.432;6.880;2023-06-10T06:46:32;4.65;;;4.25;;
12059;SDS011;6091;51.432;6.880;2023-06-10T06:48:59;4.43;;;4.03;;
12059;SDS011;6091;51.432;6.880;2023-06-10T06:51:26;4.28;;;3.97;;
12059;SDS011;6091;51.432;6.880;2023-06-10T06:53:53;4.40;;;4.10;;
12059;SDS011;6091;51.432;6.880;2023-06-10T06:56:23;4.60;;;4.30;;
12059;SDS011;6091;51.432;6.880;2023-06-10T06:58:50;3.67;;;3.47;;
12059;SDS011;6091;51.432;6.880;2023-06-10T07:01:16;3.72;;;3.45;;
12059;SDS011;6091;51.432;6.880;2023-06-10T07:03:44;3.75;;;3.53;;
12059;SDS011;6091;51.432;6.880;2023-06-10T07:06:12;4.35;;;3.88;;
12059;SDS011;6091;51.432;6.880;2023-06-10T07:08:39;4.10;;;3.78;;
12059;SDS011;6091;51.432;6.880;2023-06-10T07:11:06;4.78;;;4.20;;
12059;SDS011;6091;51.432;6.880;2023-06-10T07:13:33;3.95;;;3.65;;
12059;SDS011;6091;51.432;6.880;2023-06-10T07:16:00;4.18;;;3.88;;
12059;SDS011;6091;51.432;6.880;2023-06-10T07:18:27;4.70;;;4.30;;
12059;SDS011;6091;51.432;6.880;2023-06-10T07:20:54;3.90;;;3.60;;
12059;SDS011;6091;51.432;6.880;2023-06-10T07:23:21;4.45;;;4.05;;
12059;SDS011;6091;51.432;6.880;2023-06-10T07:25:48;4.18;;;3.88;;
12059;SDS011;6091;51.432;6.880;2023-06-10T07:28:16;4.00;;;3.70;;
12059;SDS011;6091;51.432;6.880;2023-06-10T07:30:43;4.03;;;3.72;;
12059;SDS011;6091;51.432;6.880;2023-06-10T07:33:11;3.95;;;3.65;;
12059;SDS011;6091;51.432;6.880;2023-06-10T07:35:38;5.10;;;3.75;;
12059;SDS011;6091;51.432;6.880;2023-06-10T07:38:05;4.22;;;3.92;;
12059;SDS011;6091;51.432;6.880;2023-06-10T07:40:32;3.92;;;3.63;;
12059;SDS011;6091;51.432;6.880;2023-06-10T07:43:00;4.18;;;3.88;;
12059;SDS011;6091;51.432;6.880;2023-06-10T07:45:28;4.25;;;3.95;;
12059;SDS011;6091;51.432;6.880;2023-06-10T07:47:55;3.88;;;3.58;;
12059;SDS011;6091;51.432;6.880;2023-06-10T07:50:22;4.32;;;3.83;;
12059;SDS011;6091;51.432;6.880;2023-06-10T07:52:49;4.15;;;3.78;;
12059;SDS011;6091;51.432;6.880;2023-06-10T07:55:16;5.53;;;4.15;;
12059;SDS011;6091;51.432;6.880;2023-06-10T07:57:43;5.00;;;4.10;;
12059;SDS011;6091;51.432;6.880;2023-06-10T08:00:10;4.25;;;3.85;;
12059;SDS011;6091;51.432;6.880;2023-06-10T08:02:38;9.75;;;3.42;;
12059;SDS011;6091;51.432;6.880;2023-06-10T08:05:05;4.53;;;3.88;;
12059;SDS011;6091;51.432;6.880;2023-06-10T08:07:34;8.13;;;3.90;;
12059;SDS011;6091;51.432;6.880;2023-06-10T08:10:01;4.22;;;3.80;;
12059;SDS011;6091;51.432;6.880;2023-06-10T08:12:28;9.00;;;3.85;;
12059;SDS011;6091;51.432;6.880;2023-06-10T08:14:56;5.60;;;3.90;;
12059;SDS011;6091;51.432;6.880;2023-06-10T08:17:24;3.88;;;3.58;;
12059;SDS011;6091;51.432;6.880;2023-06-10T08:19:52;6.05;;;3.53;;
12059;SDS011;6091;51.432;6.880;2023-06-10T08:22:19;3.80;;;3.47;;
12059;SDS011;6091;51.432;6.880;2023-06-10T08:24:46;4.20;;;3.80;;
12059;SDS011;6091;51.432;6.880;2023-06-10T08:27:14;4.10;;;3.75;;
12059;SDS011;6091;51.432;6.880;2023-06-10T08:29:41;4.05;;;3.47;;
12059;SDS011;6091;51.432;6.880;2023-06-10T08:32:08;4.80;;;3.97;;
12059;SDS011;6091;51.432;6.880;2023-06-10T08:34:36;5.15;;;3.60;;
12059;SDS011;6091;51.432;6.880;2023-06-10T08:37:03;4.00;;;3.70;;
12059;SDS011;6091;51.432;6.880;2023-06-10T08:39:31;4.80;;;3.38;;
12059;SDS011;6091;51.432;6.880;2023-06-10T08:45:00;5.30;;;3.33;;
12059;SDS011;6091;51.432;6.880;2023-06-10T08:47:30;3.42;;;3.15;;
12059;SDS011;6091;51.432;6.880;2023-06-10T08:50:04;4.03;;;3.70;;
12059;SDS011;6091;51.432;6.880;2023-06-10T08:52:36;3.60;;;3.20;;
12059;SDS011;6091;51.432;6.880;2023-06-10T08:55:10;3.60;;;3.30;;
12059;SDS011;6091;51.432;6.880;2023-06-10T08:57:44;3.60;;;3.30;;
12059;SDS011;6091;51.432;6.880;2023-06-10T09:00:12;4.53;;;3.33;;
12059;SDS011;6091;51.432;6.880;2023-06-10T09:02:40;3.90;;;3.28;;
12059;SDS011;6091;51.432;6.880;2023-06-10T09:05:08;4.78;;;3.25;;
12059;SDS011;6091;51.432;6.880;2023-06-10T09:07:36;4.13;;;3.38;;
12059;SDS011;6091;51.432;6.880;2023-06-10T09:10:04;3.75;;;2.92;;
12059;SDS011;6091;51.432;6.880;2023-06-10T09:12:34;3.33;;;2.83;;
12059;SDS011;6091;51.432;6.880;2023-06-10T09:15:03;3.50;;;3.20;;
12059;SDS011;6091;51.432;6.880;2023-06-10T09:17:31;3.22;;;3.00;;
12059;SDS011;6091;51.432;6.880;2023-06-10T09:20:02;3.65;;;3.10;;
12059;SDS011;6091;51.432;6.880;2023-06-10T09:22:29;3.45;;;3.15;;
12059;SDS011;6091;51.432;6.880;2023-06-10T09:25:12;3.00;;;2.80;;
12059;SDS011;6091;51.432;6.880;2023-06-10T09:30:27;3.08;;;2.88;;
12059;SDS011;6091;51.432;6.880;2023-06-10T09:33:01;2.97;;;2.70;;
12059;SDS011;6091;51.432;6.880;2023-06-10T09:35:35;3.45;;;3.15;;
12059;SDS011;6091;51.432;6.880;2023-06-10T09:38:02;3.33;;;2.97;;
12059;SDS011;6091;51.432;6.880;2023-06-10T09:40:29;3.15;;;2.95;;
12059;SDS011;6091;51.432;6.880;2023-06-10T09:42:57;2.80;;;2.60;;
12059;SDS011;6091;51.432;6.880;2023-06-10T09:45:30;3.03;;;2.83;;
12059;SDS011;6091;51.432;6.880;2023-06-10T09:47:58;3.15;;;2.85;;
12059;SDS011;6091;51.432;6.880;2023-06-10T09:50:27;3.17;;;2.92;;
12059;SDS011;6091;51.432;6.880;2023-06-10T09:52:59;3.25;;;2.95;;
12059;SDS011;6091;51.432;6.880;2023-06-10T09:55:28;3.42;;;3.10;;
12059;SDS011;6091;51.432;6.880;2023-06-10T09:58:00;2.83;;;2.63;;
12059;SDS011;6091;51.432;6.880;2023-06-10T10:00:27;3.25;;;2.97;;
12059;SDS011;6091;51.432;6.880;2023-06-10T10:02:54;3.30;;;3.10;;
12059;SDS011;6091;51.432;6.880;2023-06-10T10:05:22;2.90;;;2.70;;
12059;SDS011;6091;51.432;6.880;2023-06-10T10:07:49;3.20;;;2.90;;
12059;SDS011;6091;51.432;6.880;2023-06-10T10:10:19;3.20;;;2.90;;
12059;SDS011;6091;51.432;6.880;2023-06-10T10:12:48;3.67;;;3.38;;
12059;SDS011;6091;51.432;6.880;2023-06-10T10:15:25;2.95;;;2.65;;
12059;SDS011;6091;51.432;6.880;2023-06-10T10:18:00;3.40;;;3.05;;
12059;SDS011;6091;51.432;6.880;2023-06-10T10:20:37;3.00;;;2.75;;
12059;SDS011;6091;51.432;6.880;2023-06-10T10:23:24;2.92;;;2.72;;
12059;SDS011;6091;51.432;6.880;2023-06-10T10:26:03;2.60;;;2.38;;
12059;SDS011;6091;51.432;6.880;2023-06-10T10:28:46;2.97;;;2.78;;
12059;SDS011;6091;51.432;6.880;2023-06-10T10:31:26;3.00;;;2.70;;
12059;SDS011;6091;51.432;6.880;2023-06-10T10:33:59;3.05;;;2.80;;
12059;SDS011;6091;51.432;6.880;2023-06-10T10:36:31;3.00;;;2.80;;
12059;SDS011;6091;51.432;6.880;2023-06-10T10:38:59;3.20;;;2.92;;
12059;SDS011;6091;51.432;6.880;2023-06-10T10:41:28;2.75;;;2.55;;
12059;SDS011;6091;51.432;6.880;2023-06-10T10:43:58;3.17;;;2.88;;
12059;SDS011;6091;51.432;6.880;2023-06-10T10:46:27;3.00;;;2.80;;
12059;SDS011;6091;51.432;6.880;2023-06-10T10:48:56;3.25;;;2.95;;
12059;SDS011;6091;51.432;6.880;2023-06-10T10:51:25;2.90;;;2.70;;
12059;SDS011;6091;51.432;6.880;2023-06-10T10:54:11;3.08;;;2.88;;
12059;SDS011;6091;51.432;6.880;2023-06-10T11:05:15;2.78;;;2.58;;
12059;SDS011;6091;51.432;6.880;2023-06-10T11:07:53;3.10;;;2.53;;
12059;SDS011;6091;51.432;6.880;2023-06-10T11:10:30;2.65;;;2.45;;
12059;SDS011;6091;51.432;6.880;2023-06-10T11:13:05;2.63;;;2.42;;
12059;SDS011;6091;51.432;6.880;2023-06-10T11:15:34;3.83;;;2.90;;
12059;SDS011;6091;51.432;6.880;2023-06-10T11:20:52;3.22;;;2.88;;
12059;SDS011;6091;51.432;6.880;2023-06-10T11:23:34;2.67;;;2.50;;
12059;SDS011;6091;51.432;6.880;2023-06-10T11:26:11;2.60;;;2.40;;
12059;SDS011;6091;51.432;6.880;2023-06-10T11:29:05;3.35;;;2.67;;
12059;SDS011;6091;51.432;6.880;2023-06-10T11:31:42;2.65;;;2.42;;
12059;SDS011;6091;51.432;6.880;2023-06-10T11:34:21;2.58;;;2.40;;
12059;SDS011;6091;51.432;6.880;2023-06-10T11:36:51;3.25;;;2.95;;
12059;SDS011;6091;51.432;6.880;2023-06-10T11:39:21;2.40;;;2.22;;
12059;SDS011;6091;51.432;6.880;2023-06-10T11:41:50;2.33;;;2.13;;
12059;SDS011;6091;51.432;6.880;2023-06-10T11:44:19;2.83;;;2.63;;
12059;SDS011;6091;51.432;6.880;2023-06-10T11:46:47;2.63;;;2.42;;
12059;SDS011;6091;51.432;6.880;2023-06-10T11:49:16;3.38;;;2.70;;
12059;SDS011;6091;51.432;6.880;2023-06-10T11:51:45;37.22;;;13.20;;
12059;SDS011;6091;51.432;6.880;2023-06-10T11:54:19;49.03;;;22.02;;
12059;SDS011;6091;51.432;6.880;2023-06-10T11:56:48;43.13;;;21.38;;
12059;SDS011;6091;51.432;6.880;2023-06-10T11:59:15;47.30;;;20.88;;
12059;SDS011;6091;51.432;6.880;2023-06-10T12:01:44;30.88;;;15.70;;
12059;SDS011;6091;51.432;6.880;2023-06-10T12:04:13;31.10;;;15.30;;
12059;SDS011;6091;51.432;6.880;2023-06-10T12:09:27;23.17;;;13.27;;
12059;SDS011;6091;51.432;6.880;2023-06-10T12:12:04;77.00;;;35.53;;
12059;SDS011;6091;51.432;6.880;2023-06-10T12:19:59;50.25;;;25.60;;
12059;SDS011;6091;51.432;6.880;2023-06-10T12:22:35;43.58;;;21.90;;
12059;SDS011;6091;51.432;6.880;2023-06-10T12:25:08;38.28;;;18.25;;
12059;SDS011;6091;51.432;6.880;2023-06-10T12:27:37;40.80;;;18.98;;
12059;SDS011;6091;51.432;6.880;2023-06-10T12:30:20;39.55;;;20.33;;
12059;SDS011;6091;51.432;6.880;2023-06-10T12:32:50;37.97;;;19.20;;
12059;SDS011;6091;51.432;6.880;2023-06-10T12:35:22;38.70;;;19.73;;
12059;SDS011;6091;51.432;6.880;2023-06-10T12:38:00;34.60;;;18.13;;
12059;SDS011;6091;51.432;6.880;2023-06-10T12:40:41;34.45;;;19.23;;
12059;SDS011;6091;51.432;6.880;2023-06-10T12:43:11;33.28;;;18.48;;
12059;SDS011;6091;51.432;6.880;2023-06-10T12:45:38;36.58;;;18.98;;
12059;SDS011;6091;51.432;6.880;2023-06-10T12:48:10;31.27;;;17.77;;
12059;SDS011;6091;51.432;6.880;2023-06-10T12:50:52;28.40;;;17.33;;
12059;SDS011;6091;51.432;6.880;2023-06-10T12:53:24;27.80;;;15.98;;
12059;SDS011;6091;51.432;6.880;2023-06-10T12:55:55;30.67;;;16.67;;
12059;SDS011;6091;51.432;6.880;2023-06-10T12:58:24;33.17;;;16.05;;
12059;SDS011;6091;51.432;6.880;2023-06-10T13:00:51;26.27;;;15.52;;
12059;SDS011;6091;51.432;6.880;2023-06-10T13:03:19;28.52;;;16.67;;
12059;SDS011;6091;51.432;6.880;2023-06-10T13:05:47;31.13;;;15.90;;
12059;SDS011;6091;51.432;6.880;2023-06-10T13:08:14;24.70;;;15.20;;
12059;SDS011;6091;51.432;6.880;2023-06-10T13:10:41;21.55;;;14.63;;
12059;SDS011;6091;51.432;6.880;2023-06-10T13:13:08;23.67;;;14.20;;
12059;SDS011;6091;51.432;6.880;2023-06-10T13:15:36;20.80;;;13.52;;
12059;SDS011;6091;51.432;6.880;2023-06-10T13:18:08;23.27;;;13.35;;
12059;SDS011;6091;51.432;6.880;2023-06-10T13:20:36;23.02;;;13.40;;
12059;SDS011;6091;51.432;6.880;2023-06-10T13:23:03;22.70;;;13.60;;
12059;SDS011;6091;51.432;6.880;2023-06-10T13:25:30;26.73;;;13.75;;
12059;SDS011;6091;51.432;6.880;2023-06-10T13:27:57;20.73;;;12.73;;
12059;SDS011;6091;51.432;6.880;2023-06-10T13:30:24;20.73;;;11.88;;
12059;SDS011;6091;51.432;6.880;2023-06-10T13:32:52;18.05;;;11.75;;
12059;SDS011;6091;51.432;6.880;2023-06-10T13:35:20;19.38;;;11.95;;
12059;SDS011;6091;51.432;6.880;2023-06-10T13:37:47;17.83;;;12.65;;
12059;SDS011;6091;51.432;6.880;2023-06-10T13:40:15;18.88;;;11.45;;
12059;SDS011;6091;51.432;6.880;2023-06-10T13:42:42;17.63;;;11.50;;
12059;SDS011;6091;51.432;6.880;2023-06-10T13:45:10;19.90;;;11.80;;
12059;SDS011;6091;51.432;6.880;2023-06-10T13:47:37;19.40;;;11.10;;
12059;SDS011;6091;51.432;6.880;2023-06-10T13:50:05;19.05;;;12.02;;
12059;SDS011;6091;51.432;6.880;2023-06-10T13:52:33;15.88;;;10.68;;
12059;SDS011;6091;51.432;6.880;2023-06-10T13:55:00;14.63;;;10.60;;
12059;SDS011;6091;51.432;6.880;2023-06-10T13:57:28;14.20;;;11.02;;
12059;SDS011;6091;51.432;6.880;2023-06-10T13:59:55;16.30;;;10.77;;
12059;SDS011;6091;51.432;6.880;2023-06-10T14:02:22;21.30;;;10.77;;
12059;SDS011;6091;51.432;6.880;2023-06-10T14:04:50;13.95;;;10.18;;
12059;SDS011;6091;51.432;6.880;2023-06-10T14:07:17;16.10;;;10.48;;
12059;SDS011;6091;51.432;6.880;2023-06-10T14:09:44;15.60;;;10.23;;
12059;SDS011;6091;51.432;6.880;2023-06-10T14:12:11;15.82;;;9.13;;
12059;SDS011;6091;51.432;6.880;2023-06-10T14:14:39;16.60;;;9.63;;
12059;SDS011;6091;51.432;6.880;2023-06-10T14:17:06;13.85;;;9.50;;
12059;SDS011;6091;51.432;6.880;2023-06-10T14:19:33;12.38;;;9.85;;
12059;SDS011;6091;51.432;6.880;2023-06-10T14:22:00;14.57;;;9.73;;
12059;SDS011;6091;51.432;6.880;2023-06-10T14:24:28;12.70;;;9.23;;
12059;SDS011;6091;51.432;6.880;2023-06-10T14:26:55;15.50;;;10.15;;
12059;SDS011;6091;51.432;6.880;2023-06-10T14:29:24;14.43;;;9.75;;
12059;SDS011;6091;51.432;6.880;2023-06-10T14:31:55;13.15;;;8.65;;
12059;SDS011;6091;51.432;6.880;2023-06-10T14:34:22;13.10;;;8.50;;
12059;SDS011;6091;51.432;6.880;2023-06-10T14:36:55;11.02;;;8.85;;
12059;SDS011;6091;51.432;6.880;2023-06-10T14:39:22;12.30;;;8.55;;
12059;SDS011;6091;51.432;6.880;2023-06-10T14:41:49;13.80;;;8.52;;
12059;SDS011;6091;51.432;6.880;2023-06-10T14:44:17;12.45;;;9.02;;
12059;SDS011;6091;51.432;6.880;2023-06-10T14:46:44;14.30;;;8.80;;
12059;SDS011;6091;51.432;6.880;2023-06-10T14:49:11;11.32;;;7.85;;
12059;SDS011;6091;51.432;6.880;2023-06-10T14:51:38;10.82;;;8.13;;
12059;SDS011;6091;51.432;6.880;2023-06-10T14:54:05;10.13;;;7.80;;
12059;SDS011;6091;51.432;6.880;2023-06-10T14:56:32;10.85;;;8.10;;
12059;SDS011;6091;51.432;6.880;2023-06-10T14:58:59;10.10;;;8.00;;
12059;SDS011;6091;51.432;6.880;2023-06-10T15:01:26;12.15;;;7.82;;
12059;SDS011;6091;51.432;6.880;2023-06-10T15:03:53;12.45;;;8.27;;
12059;SDS011;6091;51.432;6.880;2023-06-10T15:06:20;9.90;;;7.75;;
12059;SDS011;6091;51.432;6.880;2023-06-10T15:08:49;10.40;;;8.30;;
12059;SDS011;6091;51.432;6.880;2023-06-10T15:11:16;10.88;;;8.32;;
12059;SDS011;6091;51.432;6.880;2023-06-10T15:13:43;10.30;;;7.93;;
12059;SDS011;6091;51.432;6.880;2023-06-10T15:16:10;9.73;;;7.53;;
12059;SDS011;6091;51.432;6.880;2023-06-10T15:18:37;9.73;;;7.90;;
12059;SDS011;6091;51.432;6.880;2023-06-10T15:21:04;9.32;;;7.53;;
12059;SDS011;6091;51.432;6.880;2023-06-10T15:23:31;9.77;;;7.40;;
12059;SDS011;6091;51.432;6.880;2023-06-10T15:25:58;9.75;;;7.00;;
12059;SDS011;6091;51.432;6.880;2023-06-10T15:28:25;10.65;;;7.47;;
12059;SDS011;6091;51.432;6.880;2023-06-10T15:30:54;10.32;;;7.13;;
12059;SDS011;6091;51.432;6.880;2023-06-10T15:33:20;9.15;;;7.10;;
12059;SDS011;6091;51.432;6.880;2023-06-10T15:35:47;9.00;;;6.68;;
12059;SDS011;6091;51.432;6.880;2023-06-10T15:38:15;8.60;;;6.70;;
12059;SDS011;6091;51.432;6.880;2023-06-10T15:40:43;9.13;;;6.95;;